.
WxDataArchive / Data Records for 2016-05-22
2016-05-21 May 2016 2016-05-23

Data Records for Sunday, 22 May 2016

Time	Temp	Chill	HIndex	Humid	Dewpt	 Wind 	HiWind	WindDir	Rain 	Barom
-----	----	-----	------	-----	-----	------	------	-------	-----	-----
00:00	59.0	59.0	59.0	54	42.4	0	1	292	0.00	29.984 
00:05	59.0	59.0	59.0	54	42.4	0	2	292	0.00	29.984 
00:10	58.9	58.9	58.9	54	42.3	0	1	292	0.00	29.984 
00:15	58.7	58.7	58.7	54	42.1	0	1	292	0.00	29.985 
00:20	58.6	58.6	58.6	55	42.5	0	1	292	0.00	29.985 
00:25	58.3	58.3	58.3	55	42.2	0	0	---	0.00	29.985 
00:30	58.0	58.0	58.0	56	42.4	0	1	292	0.00	29.986 
00:35	58.0	58.0	58.0	56	42.4	0	1	292	0.00	29.986 
00:40	58.0	58.0	58.0	56	42.4	0	1	292	0.00	29.986 
00:45	57.8	57.8	57.8	56	42.2	0	1	292	0.00	29.985 
00:50	57.6	57.6	57.6	56	42.0	0	0	---	0.00	29.985 
00:55	57.5	57.5	57.5	56	41.9	0	1	292	0.00	29.985 
01:00	57.5	57.5	57.5	56	41.9	0	1	292	0.00	29.981 
01:05	57.3	57.3	57.3	56	41.7	0	0	---	0.00	29.981 
01:10	57.2	57.2	57.2	56	41.6	0	0	---	0.00	29.981 
01:15	57.0	57.0	57.0	56	41.5	0	0	---	0.00	29.977 
01:20	56.9	56.9	56.9	56	41.4	0	0	---	0.00	29.977 
01:25	56.6	56.6	56.6	57	41.5	0	0	---	0.00	29.977 
01:30	56.5	56.5	56.5	57	41.5	0	1	292	0.00	29.979 
01:35	56.3	56.3	56.3	57	41.3	0	1	292	0.00	29.979 
01:40	56.2	56.2	56.2	57	41.2	0	0	---	0.00	29.979 
01:45	56.0	56.0	56.0	58	41.4	0	0	---	0.00	29.976 
01:50	56.0	56.0	56.0	58	41.4	0	0	---	0.00	29.976 
01:55	55.9	55.9	55.9	58	41.3	0	0	---	0.00	29.976 
02:00	55.6	55.6	55.6	58	41.1	0	0	---	0.00	29.973 
02:05	55.3	55.3	55.3	59	41.2	0	0	---	0.00	29.973 
02:10	54.8	54.8	54.8	61	41.6	0	0	---	0.00	29.973 
02:15	54.7	54.7	54.7	61	41.5	0	0	---	0.00	29.971 
02:20	54.4	54.4	54.4	62	41.7	0	0	---	0.00	29.971 
02:25	54.2	54.2	54.2	62	41.5	0	0	---	0.00	29.971 
02:30	54.2	54.2	54.2	62	41.5	0	0	---	0.00	29.970 
02:35	54.1	54.1	54.1	63	41.8	0	0	---	0.00	29.970 
02:40	53.9	53.9	53.9	62	41.2	0	0	---	0.00	29.970 
02:45	53.8	53.8	53.8	62	41.1	0	0	---	0.00	29.970 
02:50	53.8	53.8	53.8	62	41.1	0	0	---	0.00	29.970 
02:55	53.9	53.9	53.9	62	41.2	0	0	---	0.00	29.970 
03:00	53.8	53.8	53.8	62	41.1	0	1	292	0.00	29.968 
03:05	53.9	53.9	53.9	62	41.2	0	1	292	0.00	29.968 
03:10	53.9	53.9	53.9	62	41.2	0	1	292	0.00	29.968 
03:15	53.8	53.8	53.8	62	41.1	0	1	292	0.00	29.963 
03:20	53.9	53.9	53.9	61	40.8	0	1	292	0.00	29.963 
03:25	53.9	53.9	53.9	61	40.8	0	1	292	0.00	29.963 
03:30	54.1	54.1	54.1	60	40.5	0	1	292	0.00	29.961 
03:35	54.1	54.1	54.1	60	40.5	0	1	292	0.00	29.961 
03:40	54.1	54.1	54.1	60	40.5	0	1	292	0.00	29.961 
03:45	54.1	54.1	54.1	59	40.1	0	2	292	0.00	29.961 
03:50	54.1	54.1	54.1	59	40.1	0	1	292	0.00	29.961 
03:55	54.1	54.1	54.1	59	40.1	0	1	292	0.00	29.961 
04:00	53.9	53.9	53.9	59	39.9	0	1	292	0.00	29.959 
04:05	53.9	53.9	53.9	59	39.9	0	1	292	0.00	29.959 
04:10	53.8	53.8	53.8	59	39.8	0	1	292	0.00	29.959 
04:15	53.6	53.6	53.6	59	39.6	0	1	292	0.00	29.958 
04:20	53.6	53.6	53.6	59	39.6	0	1	292	0.00	29.958 
04:25	53.8	53.8	53.8	59	39.8	0	2	292	0.00	29.958 
04:30	53.8	53.8	53.8	59	39.8	0	2	292	0.00	29.957 
04:35	53.8	53.8	53.8	59	39.8	0	1	292	0.00	29.957 
04:40	53.6	53.6	53.6	59	39.6	0	1	292	0.00	29.957 
04:45	53.6	53.6	53.6	58	39.2	0	2	292	0.00	29.960 
04:50	53.6	53.6	53.6	58	39.2	0	2	292	0.00	29.960 
04:55	53.6	53.6	53.6	58	39.2	0	2	292	0.00	29.960 
05:00	53.8	53.8	53.8	58	39.4	0	1	292	0.00	29.959 
05:05	53.8	53.8	53.8	58	39.4	0	3	292	0.00	29.959 
05:10	53.8	53.8	53.8	58	39.4	0	4	292	0.00	29.959 
05:15	53.8	53.8	53.8	58	39.4	0	4	292	0.00	29.962 
05:20	53.8	53.8	53.8	58	39.4	0	2	292	0.00	29.962 
05:25	53.8	53.8	53.8	58	39.4	0	4	292	0.00	29.962 
05:30	53.6	53.6	53.6	58	39.2	0	2	292	0.00	29.962 
05:35	53.5	53.5	53.5	58	39.1	1	3	292	0.00	29.962 
05:40	53.5	53.5	53.5	59	39.5	1	4	292	0.00	29.962 
05:45	53.5	53.5	53.5	58	39.1	1	3	292	0.00	29.969 
05:50	53.5	53.5	53.5	58	39.1	1	3	292	0.00	29.969 
05:55	53.5	53.5	53.5	58	39.1	1	2	292	0.00	29.969 
06:00	53.3	53.3	53.3	58	38.9	0	2	292	0.00	29.969 
06:05	53.3	53.3	53.3	58	38.9	1	4	292	0.00	29.969 
06:10	53.3	53.3	53.3	59	39.3	0	2	292	0.00	29.969 
06:15	53.2	53.2	53.2	59	39.2	0	1	292	0.00	29.973 
06:20	53.1	53.1	53.1	59	39.2	0	3	292	0.00	29.973 
06:25	53.1	53.1	53.1	59	39.2	0	2	292	0.00	29.973 
06:30	53.2	53.2	53.2	58	38.8	1	3	292	0.00	29.974 
06:35	53.3	53.3	53.3	58	38.9	0	2	292	0.00	29.974 
06:40	53.5	53.5	53.5	58	39.1	1	3	292	0.00	29.974 
06:45	53.6	53.6	53.6	58	39.2	0	2	292	0.00	29.978 
06:50	53.8	53.8	53.8	58	39.4	0	2	292	0.00	29.978 
06:55	53.9	53.9	53.9	58	39.5	1	3	292	0.00	29.978 
07:00	53.9	53.9	53.9	58	39.5	1	3	292	0.00	29.979 
07:05	54.1	54.1	54.1	58	39.7	1	3	292	0.00	29.979 
07:10	54.2	54.2	54.2	58	39.7	0	2	292	0.00	29.979 
07:15	54.4	54.4	54.4	58	39.9	1	3	292	0.00	29.986 
07:20	54.5	54.5	54.5	58	40.0	1	3	292	0.00	29.986 
07:25	54.7	54.7	54.7	58	40.2	1	3	292	0.00	29.986 
07:30	54.8	54.8	54.8	58	40.3	1	3	292	0.00	29.985 
07:35	55.0	55.0	55.0	56	39.6	2	4	292	0.00	29.985 
07:40	55.3	55.3	55.3	56	39.9	1	3	292	0.00	29.985 
07:45	55.4	55.4	55.4	56	40.0	1	2	292	0.00	29.985 
07:50	55.6	55.6	55.6	56	40.2	1	3	292	0.00	29.985 
07:55	55.7	55.7	55.7	57	40.7	1	4	292	0.00	29.985 
08:00	55.7	55.7	55.7	57	40.7	1	3	292	0.00	29.992 
08:05	55.9	55.9	55.9	56	40.4	2	5	292	0.00	29.992 
08:10	56.0	56.0	56.0	56	40.5	1	4	292	0.00	29.992 
08:15	56.3	56.3	56.3	56	40.8	1	4	292	0.00	29.990 
08:20	56.3	56.3	56.3	56	40.8	1	6	292	0.00	29.990 
08:25	56.5	56.5	56.5	56	41.0	1	4	292	0.00	29.990 
08:30	56.6	56.6	56.6	55	40.6	2	5	292	0.00	29.989 
08:35	56.7	56.7	56.7	55	40.7	1	3	292	0.00	29.989 
08:40	56.9	56.9	56.9	56	41.4	1	3	292	0.00	29.989 
08:45	57.0	57.0	57.0	55	41.0	1	3	292	0.00	29.987 
08:50	57.3	57.3	57.3	55	41.3	1	4	292	0.00	29.987 
08:55	57.8	57.8	57.8	54	41.3	1	4	292	0.00	29.987 
09:00	58.4	58.4	58.4	54	41.8	1	4	292	0.00	29.992 
09:05	58.7	58.7	58.7	53	41.6	1	3	292	0.00	29.992 
09:10	59.0	59.0	59.0	53	41.9	1	4	315	0.00	29.992 
09:15	59.8	59.8	59.8	52	42.1	3	6	292	0.00	30.000 
09:20	60.4	60.4	60.4	50	41.7	2	6	292	0.00	30.000 
09:25	60.9	60.9	60.9	50	42.1	2	9	292	0.00	30.000 
09:30	61.3	61.3	61.3	50	42.5	1	5	292	0.00	30.002 
09:35	61.6	61.6	61.6	48	41.7	2	7	292	0.00	30.002 
09:40	62.1	62.1	62.1	50	43.2	1	3	292	0.00	30.002 
09:45	62.6	62.6	62.6	49	43.2	2	5	292	0.00	30.002 
09:50	63.1	63.1	63.1	51	44.7	1	4	315	0.00	30.002 
09:55	63.7	63.7	63.7	49	44.2	1	3	315	0.00	30.002 
10:00	64.2	64.2	64.2	48	44.1	1	4	292	0.00	29.999 
10:05	64.7	64.7	64.7	47	44.0	1	6	292	0.00	29.999 
10:10	65.0	65.0	65.0	46	43.7	2	5	292	0.00	29.999 
10:15	65.3	65.3	65.3	46	44.0	1	5	292	0.00	30.003 
10:20	65.8	65.8	65.8	46	44.4	1	4	292	0.00	30.003 
10:25	66.3	66.3	66.3	46	44.9	1	4	315	0.00	30.003 
10:30	66.6	66.6	66.6	45	44.6	1	4	292	0.00	30.002 
10:35	67.1	67.1	67.1	45	45.0	1	3	292	0.00	30.002 
10:40	67.6	67.6	67.6	43	44.3	1	4	292	0.00	30.002 
10:45	68.1	68.1	68.1	43	44.7	1	4	292	0.00	29.994 
10:50	68.6	68.6	68.6	45	46.4	0	3	292	0.00	29.994 
10:55	68.9	68.9	68.9	43	45.5	1	3	292	0.00	29.994 
11:00	69.3	69.3	69.3	41	44.6	1	4	292	0.00	29.996 
11:05	69.4	69.4	69.4	41	44.7	2	6	292	0.00	29.996 
11:10	69.8	69.8	69.8	43	46.3	0	2	292	0.00	29.996 
11:15	70.8	70.8	70.8	42	46.6	0	2	180	0.00	29.989 
11:20	71.5	71.5	71.5	40	45.9	0	1	180	0.00	29.989 
11:25	71.6	71.6	71.6	39	45.3	1	3	202	0.00	29.989 
11:30	71.8	71.8	71.8	38	44.8	1	4	292	0.00	29.985 
11:35	72.0	72.0	72.0	39	45.7	1	7	292	0.00	29.985 
11:40	71.8	71.8	71.8	35	42.7	1	5	315	0.00	29.985 
11:45	71.8	71.8	71.8	39	45.5	1	4	292	0.00	29.982 
11:50	72.3	72.3	72.3	39	45.9	1	2	202	0.00	29.982 
11:55	72.7	72.7	72.7	36	44.2	1	6	112	0.00	29.982 
12:00	72.8	72.8	72.8	37	45.0	1	4	68	0.00	29.979 
12:05	72.8	72.8	72.8	36	44.3	1	5	225	0.00	29.979 
12:10	72.5	72.5	72.5	35	43.3	1	4	292	0.00	29.979 
12:15	72.7	72.7	72.7	37	44.9	1	4	292	0.00	29.979 
12:20	72.7	72.7	72.7	39	46.3	1	4	0	0.00	29.979 
12:25	73.2	73.2	73.2	34	43.1	1	7	112	0.00	29.979 
12:30	73.0	73.0	73.0	36	44.5	1	3	315	0.00	29.977 
12:35	73.3	73.3	73.3	38	46.1	1	4	292	0.00	29.977 
12:40	73.5	73.5	73.5	35	44.2	2	7	315	0.00	29.977 
12:45	73.7	73.7	73.7	35	44.3	1	5	90	0.00	29.970 
12:50	73.7	73.7	73.7	35	44.3	1	4	90	0.00	29.970 
12:55	73.2	73.2	73.2	34	43.1	3	11	270	0.00	29.970 
13:00	73.0	73.0	73.0	34	43.0	2	7	292	0.00	29.973 
13:05	73.2	73.2	73.2	35	43.9	1	6	270	0.00	29.973 
13:10	73.2	73.2	73.2	34	43.1	1	4	22	0.00	29.973 
13:15	73.2	73.2	73.2	35	43.9	1	5	315	0.00	29.969 
13:20	73.3	73.3	73.3	36	44.7	2	10	338	0.00	29.969 
13:25	73.3	73.3	73.3	35	44.0	1	4	45	0.00	29.969 
13:30	73.3	73.3	73.3	35	44.0	1	5	45	0.00	29.966 
13:35	73.3	73.3	73.3	35	44.0	2	4	68	0.00	29.966 
13:40	73.5	73.5	73.5	35	44.2	1	4	90	0.00	29.966 
13:45	73.7	73.7	73.7	36	45.1	1	5	315	0.00	29.965 
13:50	74.0	74.0	74.0	38	46.8	1	3	315	0.00	29.965 
13:55	74.2	74.2	74.2	35	44.8	1	3	338	0.00	29.965 
14:00	74.6	74.6	74.6	35	45.1	1	4	90	0.00	29.964 
14:05	74.6	74.6	74.6	33	43.6	1	5	112	0.00	29.964 
14:10	74.2	74.2	74.2	32	42.4	1	5	22	0.00	29.964 
14:15	74.0	74.0	74.0	33	43.1	2	5	292	0.00	29.967 
14:20	73.9	73.9	73.9	32	42.2	1	5	22	0.00	29.967 
14:25	74.4	74.4	74.4	33	43.4	1	5	68	0.00	29.967 
14:30	74.6	74.6	74.6	31	42.0	0	2	90	0.00	29.963 
14:35	74.7	74.7	74.7	35	45.2	1	4	90	0.00	29.963 
14:40	74.9	74.9	74.9	34	44.6	1	7	112	0.00	29.963 
14:45	74.9	74.9	74.9	34	44.6	1	4	90	0.00	29.961 
14:50	74.6	74.6	74.6	32	42.8	2	6	292	0.00	29.961 
14:55	74.2	74.2	74.2	32	42.4	2	5	292	0.00	29.961 
15:00	74.2	74.2	74.2	32	42.4	1	5	292	0.00	29.955 
15:05	74.6	74.6	74.6	34	44.4	1	4	292	0.00	29.955 
15:10	74.9	74.9	74.9	32	43.0	2	7	90	0.00	29.955 
15:15	75.1	75.1	77.1	32	43.2	1	5	90	0.00	29.957 
15:20	75.1	75.1	77.1	32	43.2	1	5	90	0.00	29.957 
15:25	75.1	75.1	77.2	33	44.0	1	4	292	0.00	29.957 
15:30	75.3	75.3	77.1	31	42.6	1	4	270	0.00	29.953 
15:35	75.4	75.4	77.1	31	42.6	1	10	270	0.00	29.953 
15:40	75.4	75.4	77.1	31	42.6	1	3	68	0.00	29.953 
15:45	75.6	75.6	77.1	30	42.0	2	6	112	0.00	29.950 
15:50	75.3	75.3	77.1	31	42.6	1	3	90	0.00	29.950 
15:55	75.3	75.3	77.2	32	43.4	1	5	112	0.00	29.950 
16:00	75.4	75.4	76.9	28	40.0	1	6	45	0.00	29.951 
16:05	75.4	75.4	77.0	29	40.9	1	4	68	0.00	29.951 
16:10	75.3	75.3	77.0	30	41.7	1	3	68	0.00	29.951 
16:15	75.3	75.3	77.1	31	42.6	1	3	90	0.00	29.951 
16:20	75.3	75.3	77.2	33	44.2	0	3	90	0.00	29.951 
16:25	75.3	75.3	77.1	31	42.6	1	4	90	0.00	29.951 
16:30	75.3	75.3	77.0	29	40.8	1	4	68	0.00	29.949 
16:35	75.3	75.3	77.1	31	42.6	1	6	90	0.00	29.949 
16:40	75.3	75.3	77.0	29	40.8	1	6	270	0.00	29.949 
16:45	75.3	75.3	77.0	29	40.8	1	5	112	0.00	29.944 
16:50	75.4	75.4	77.3	33	44.3	1	5	112	0.00	29.944 
16:55	75.6	75.6	77.2	31	42.8	1	3	112	0.00	29.944 
17:00	75.8	75.8	77.3	31	43.0	1	3	112	0.00	29.941 
17:05	75.8	75.8	77.5	35	46.2	1	5	112	0.00	29.941 
17:10	75.6	75.6	77.1	30	42.0	1	4	68	0.00	29.941 
17:15	75.6	75.6	77.2	31	42.8	1	4	292	0.00	29.946 
17:20	75.4	75.4	77.0	29	40.9	1	3	315	0.00	29.946 
17:25	75.6	75.6	77.1	29	41.1	1	4	292	0.00	29.946 
17:30	75.6	75.6	77.1	30	42.0	1	4	292	0.00	29.943 
17:35	75.4	75.4	77.0	29	40.9	0	3	90	0.00	29.943 
17:40	75.1	75.1	77.0	30	41.5	1	3	292	0.00	29.943 
17:45	74.7	74.7	74.7	28	39.4	1	6	90	0.00	29.938 
17:50	74.6	74.6	74.6	30	41.1	1	6	112	0.00	29.938 
17:55	74.6	74.6	74.6	28	39.3	1	3	112	0.00	29.938 
18:00	74.2	74.2	74.2	30	40.8	1	4	22	0.00	29.942 
18:05	74.0	74.0	74.0	30	40.6	1	5	90	0.00	29.942 
18:10	74.0	74.0	74.0	29	39.7	0	2	90	0.00	29.942 
18:15	74.0	74.0	74.0	31	41.4	1	5	90	0.00	29.940 
18:20	74.0	74.0	74.0	30	40.6	0	3	22	0.00	29.940 
18:25	74.0	74.0	74.0	29	39.7	0	3	315	0.00	29.940 
18:30	74.0	74.0	74.0	28	38.8	1	5	292	0.00	29.938 
18:35	73.9	73.9	73.9	28	38.7	1	3	68	0.00	29.938 
18:40	73.7	73.7	73.7	28	38.6	1	3	68	0.00	29.938 
18:45	73.5	73.5	73.5	27	37.5	0	3	338	0.00	29.938 
18:50	73.3	73.3	73.3	30	40.0	0	2	248	0.00	29.938 
18:55	73.3	73.3	73.3	30	40.0	0	2	248	0.00	29.938 
19:00	73.2	73.2	73.2	31	40.7	0	1	248	0.00	29.938 
19:05	73.2	73.2	73.2	31	40.7	0	2	248	0.00	29.938 
19:10	73.2	73.2	73.2	32	41.6	0	2	248	0.00	29.938 
19:15	73.2	73.2	73.2	31	40.7	0	2	248	0.00	29.937 
19:20	73.2	73.2	73.2	32	41.6	0	1	248	0.00	29.937 
19:25	73.0	73.0	73.0	34	43.0	0	1	248	0.00	29.937 
19:30	72.8	72.8	72.8	31	40.4	0	5	158	0.00	29.940 
19:35	72.7	72.7	72.7	32	41.1	0	2	158	0.00	29.940 
19:40	72.5	72.5	72.5	32	41.0	0	2	158	0.00	29.940 
19:45	72.3	72.3	72.3	32	40.8	0	2	158	0.00	29.940 
19:50	72.1	72.1	72.1	34	42.2	0	0	---	0.00	29.940 
19:55	72.0	72.0	72.0	33	41.3	0	1	158	0.00	29.940 
20:00	71.8	71.8	71.8	32	40.3	0	4	112	0.00	29.943 
20:05	71.6	71.6	71.6	31	39.4	0	2	112	0.00	29.943 
20:10	71.3	71.3	71.3	34	41.5	0	1	112	0.00	29.943 
20:15	70.9	70.9	70.9	35	41.9	0	0	---	0.00	29.946 
20:20	70.4	70.4	70.4	35	41.4	0	1	112	0.00	29.946 
20:25	70.1	70.1	70.1	35	41.2	0	0	---	0.00	29.946 
20:30	69.8	69.8	69.8	36	41.6	0	1	112	0.00	29.951 
20:35	69.4	69.4	69.4	36	41.3	0	1	112	0.00	29.951 
20:40	69.1	69.1	69.1	36	41.0	0	0	---	0.00	29.951 
20:45	68.6	68.6	68.6	37	41.3	0	0	---	0.00	29.953 
20:50	68.3	68.3	68.3	38	41.7	0	0	---	0.00	29.953 
20:55	67.8	67.8	67.8	38	41.3	0	2	112	0.00	29.953 
21:00	67.3	67.3	67.3	38	40.8	0	2	112	0.00	29.957 
21:05	66.8	66.8	66.8	39	41.0	0	0	---	0.00	29.957 
21:10	66.3	66.3	66.3	39	40.6	0	0	---	0.00	29.957 
21:15	65.8	65.8	65.8	40	40.8	0	0	---	0.00	29.951 
21:20	65.3	65.3	65.3	40	40.4	0	0	---	0.00	29.951 
21:25	64.8	64.8	64.8	40	39.9	0	0	---	0.00	29.951 
21:30	64.3	64.3	64.3	40	39.5	0	0	---	0.00	29.956 
21:35	63.9	63.9	63.9	41	39.7	0	0	---	0.00	29.956 
21:40	63.4	63.4	63.4	41	39.3	0	0	---	0.00	29.956 
21:45	63.1	63.1	63.1	41	39.0	0	0	---	0.00	29.963 
21:50	62.6	62.6	62.6	43	39.8	0	0	---	0.00	29.963 
21:55	62.3	62.3	62.3	43	39.5	0	0	---	0.00	29.963 
22:00	62.0	62.0	62.0	42	38.6	0	0	---	0.00	29.967 
22:05	61.6	61.6	61.6	43	38.9	0	0	---	0.00	29.967 
22:10	61.3	61.3	61.3	44	39.2	0	0	---	0.00	29.967 
22:15	61.0	61.0	61.0	44	38.9	0	0	---	0.00	29.967 
22:20	60.5	60.5	60.5	45	39.1	0	0	---	0.00	29.967 
22:25	60.2	60.2	60.2	46	39.3	0	0	---	0.00	29.967 
22:30	59.9	59.9	59.9	46	39.1	0	0	---	0.00	29.970 
22:35	59.6	59.6	59.6	46	38.8	0	0	---	0.00	29.970 
22:40	59.5	59.5	59.5	46	38.7	0	0	---	0.00	29.970 
22:45	59.6	59.6	59.6	43	37.1	0	1	112	0.00	29.980 
22:50	59.9	59.9	59.9	43	37.3	0	1	112	0.00	29.980 
22:55	60.2	60.2	60.2	43	37.6	0	1	112	0.00	29.980 
23:00	60.5	60.5	60.5	41	36.7	0	1	112	0.00	29.983 
23:05	60.7	60.7	60.7	41	36.9	0	1	112	0.00	29.983 
23:10	60.9	60.9	60.9	39	35.8	0	1	112	0.00	29.983 
23:15	60.9	60.9	60.9	40	36.4	0	2	112	0.00	29.980 
23:20	61.0	61.0	61.0	39	35.9	0	1	112	0.00	29.980 
23:25	60.9	60.9	60.9	40	36.4	0	1	112	0.00	29.980 
23:30	60.7	60.7	60.7	39	35.6	0	1	112	0.00	29.987 
23:35	60.5	60.5	60.5	39	35.4	0	1	112	0.00	29.987 
23:40	60.2	60.2	60.2	39	35.2	0	1	112	0.00	29.987 
23:45	59.9	59.9	59.9	39	34.9	0	1	112	0.00	29.992 
23:50	59.8	59.8	59.8	41	36.1	0	3	112	0.00	29.992 
23:55	59.5	59.5	59.5	41	35.8	0	1	112	0.00	29.992 

CoCoRaHS
IN-AL-39
A2 Web Hosting
Creative Commons License
GoDaddy
search engine by freefind advanced

loaded 2018-11-16 00:39:58 • last modified 2010-11-18 10:43:29
Privacy PolicyDisclaimer
• wx.awcolley.com is powered by PmWiki v.2002016 •
• all content (unless otherwise noted) © 2018 A W Colley